Time;durP1;ratioP1;P1;durP2;ratioP2;P2;SDS_P1;SDS_P2;PMS_P1;PMS_P2;Temp;Humidity;BMP_temperature;BMP_pressure;BME280_temperature;BME280_humidity;BME280_pressure;Samples;Min_cycle;Max_cycle;Signal;HPM_P1;HPM_P2
2024/01/03 00:00:42;;;;;;;4.38;0.82;;;9.50;99.90;;;;;;5114996;28;20092;-80
2024/01/03 00:03:08;;;;;;;4.15;0.82;;;9.40;99.90;;;;;;5096966;28;20031;-80
2024/01/03 00:05:42;;;;;;;4.70;1.20;;;9.30;99.90;;;;;;5095500;27;20146;-79
2024/01/03 00:08:29;;;;;;;8.02;2.15;;;9.40;99.90;;;;;;5128454;27;20054;-80
2024/01/03 00:10:57;;;;;;;5.05;1.05;;;9.30;99.90;;;;;;5124493;27;20043;-80
2024/01/03 00:14:04;;;;;;;5.18;1.15;;;9.20;99.90;;;;;;5144886;27;20087;-80
2024/01/03 00:16:30;;;;;;;6.95;1.63;;;9.30;99.90;;;;;;5093668;28;20055;-81
2024/01/03 00:18:59;;;;;;;7.13;1.73;;;9.30;99.90;;;;;;5097377;28;20031;-80
2024/01/03 00:21:26;;;;;;;7.78;1.48;;;9.20;99.90;;;;;;5114075;27;20049;-81
2024/01/03 00:23:56;;;;;;;9.65;1.75;;;9.10;99.90;;;;;;5145718;27;20027;-80
2024/01/03 00:26:23;;;;;;;7.88;1.50;;;9.10;99.90;;;;;;5147046;27;20127;-80
2024/01/03 00:28:49;;;;;;;4.82;1.10;;;9.30;99.90;;;;;;5096731;28;20407;-80
2024/01/03 00:31:40;;;;;;;8.38;1.70;;;9.10;99.90;;;;;;5096670;28;20039;-81
2024/01/03 00:34:23;;;;;;;7.18;1.58;;;9.10;99.90;;;;;;5130120;27;20039;-80
2024/01/03 00:36:55;;;;;;;8.40;1.60;;;9.20;99.90;;;;;;5095592;28;20047;-80
2024/01/03 00:39:29;;;;;;;;;;;9.10;99.90;;;;;;5097630;27;20038;-80
2024/01/03 00:41:56;;;;;;;6.93;1.83;;;9.20;99.90;;;;;;5117141;27;19915;-81
2024/01/03 00:44:22;;;;;;;5.70;1.58;;;9.20;99.90;;;;;;5131146;27;20369;-81
2024/01/03 00:46:49;;;;;;;7.78;1.25;;;9.10;99.90;;;;;;5110517;28;20487;-80
2024/01/03 00:49:15;;;;;;;8.98;1.60;;;9.00;99.90;;;;;;5096602;28;20057;-81
2024/01/03 00:51:47;;;;;;;6.80;1.63;;;9.00;99.90;;;;;;5147185;27;20039;-80
2024/01/03 00:54:13;;;;;;;3.95;0.90;;;9.00;99.90;;;;;;5148173;27;20039;-80
2024/01/03 00:56:38;;;;;;;8.90;2.08;;;9.00;99.90;;;;;;5129269;27;20438;-81
2024/01/03 00:59:04;;;;;;;12.60;1.70;;;9.00;99.90;;;;;;5111761;28;20043;-80
2024/01/03 01:01:30;;;;;;;3.63;0.88;;;9.00;99.90;;;;;;5147002;27;20028;-80
2024/01/03 01:03:55;;;;;;;6.63;1.33;;;8.90;99.90;;;;;;5113530;28;20036;-80
2024/01/03 01:06:21;;;;;;;4.03;1.20;;;9.00;99.90;;;;;;5095565;28;20039;-80
2024/01/03 01:08:47;;;;;;;10.05;1.77;;;9.00;99.90;;;;;;5112650;28;20492;-79
2024/01/03 01:11:12;;;;;;;6.10;1.38;;;9.00;99.90;;;;;;5094621;28;20121;-81
2024/01/03 01:13:38;;;;;;;7.07;1.75;;;8.80;99.90;;;;;;5147619;27;20096;-80
2024/01/03 01:16:04;;;;;;;6.47;1.00;;;8.90;99.90;;;;;;5112215;28;20047;-80
2024/01/03 01:18:29;;;;;;;8.25;1.90;;;8.90;99.90;;;;;;5095610;28;20084;-80
2024/01/03 01:20:55;;;;;;;7.53;2.13;;;8.80;99.90;;;;;;5094342;28;20035;-81
2024/01/03 01:23:20;;;;;;;9.52;1.90;;;8.90;99.90;;;;;;5113016;28;20484;-79
2024/01/03 01:25:46;;;;;;;8.23;1.70;;;9.00;99.90;;;;;;5094714;28;20052;-80
2024/01/03 01:28:12;;;;;;;6.78;1.02;;;8.80;99.90;;;;;;5127089;27;20039;-80
2024/01/03 01:30:37;;;;;;;7.20;1.40;;;8.90;99.90;;;;;;5093892;28;20043;-79
2024/01/03 01:33:03;;;;;;;5.15;1.60;;;8.90;99.90;;;;;;5113096;28;20135;-80
2024/01/03 01:35:29;;;;;;;5.68;1.20;;;8.90;99.90;;;;;;5111990;28;20046;-79
2024/01/03 01:37:54;;;;;;;6.53;1.65;;;8.80;99.90;;;;;;5128452;27;20488;-79
2024/01/03 01:40:20;;;;;;;9.63;1.63;;;8.70;99.90;;;;;;5111977;28;20122;-80
2024/01/03 01:42:45;;;;;;;6.07;0.82;;;8.80;99.90;;;;;;5144009;27;20031;-80
2024/01/03 01:45:11;;;;;;;6.85;1.30;;;8.80;99.90;;;;;;5128339;27;20065;-80
2024/01/03 01:47:42;;;;;;;5.95;1.52;;;8.70;99.90;;;;;;5111858;28;20027;-79
2024/01/03 01:50:08;;;;;;;10.52;1.60;;;8.80;99.90;;;;;;5094376;28;20039;-80
2024/01/03 01:52:34;;;;;;;6.60;1.42;;;8.80;99.90;;;;;;5094657;28;20046;-79
2024/01/03 01:55:00;;;;;;;6.32;1.23;;;8.90;99.90;;;;;;5094755;28;20092;-79
2024/01/03 01:57:29;;;;;;;5.80;1.33;;;9.00;99.90;;;;;;5129067;27;20032;-81
2024/01/03 01:59:55;;;;;;;5.13;0.90;;;9.00;99.90;;;;;;5094320;28;20436;-81
2024/01/03 02:02:21;;;;;;;11.38;1.42;;;8.90;99.90;;;;;;5110536;28;20040;-81
2024/01/03 02:04:47;;;;;;;6.82;1.13;;;9.00;99.90;;;;;;5094645;28;20043;-81
2024/01/03 02:07:13;;;;;;;6.68;1.65;;;9.00;99.90;;;;;;5129116;27;20499;-81
2024/01/03 02:09:41;;;;;;;4.70;1.33;;;9.10;99.90;;;;;;5144384;27;20122;-80
2024/01/03 02:12:08;;;;;;;6.10;1.58;;;9.00;99.90;;;;;;5094334;28;20043;-81
2024/01/03 02:14:34;;;;;;;4.45;0.88;;;9.10;99.90;;;;;;5094442;28;20036;-80
2024/01/03 02:16:59;;;;;;;9.45;1.50;;;9.10;99.90;;;;;;5095552;28;20046;-82
2024/01/03 02:19:25;;;;;;;8.52;1.55;;;8.90;99.90;;;;;;5110258;28;20040;-81
2024/01/03 02:21:51;;;;;;;7.22;1.42;;;9.10;99.90;;;;;;5112498;28;20042;-80
2024/01/03 02:24:16;;;;;;;10.02;1.55;;;9.10;99.90;;;;;;5110320;28;20036;-81
2024/01/03 02:26:42;;;;;;;3.65;1.02;;;9.10;99.90;;;;;;5128794;28;20455;-81
2024/01/03 02:29:07;;;;;;;5.53;1.02;;;9.00;99.90;;;;;;5128463;28;20031;-82
2024/01/03 02:31:33;;;;;;;6.75;1.42;;;9.10;99.90;;;;;;5111487;28;20100;-82
2024/01/03 02:33:59;;;;;;;7.97;1.60;;;9.20;99.90;;;;;;5094729;28;20051;-83
2024/01/03 02:36:25;;;;;;;10.25;1.52;;;9.00;99.90;;;;;;5094414;28;20036;-81
2024/01/03 02:38:51;;;;;;;5.28;1.17;;;9.00;99.90;;;;;;5128494;27;20035;-81
2024/01/03 02:41:17;;;;;;;8.32;1.17;;;9.10;99.90;;;;;;5111413;28;20106;-83
2024/01/03 02:43:43;;;;;;;9.18;1.70;;;9.00;99.90;;;;;;5110543;28;20138;-82
2024/01/03 02:46:08;;;;;;;6.72;1.13;;;9.00;99.90;;;;;;5111478;28;20504;-81
2024/01/03 02:48:34;;;;;;;7.03;1.10;;;9.10;99.90;;;;;;5146379;27;20404;-82
2024/01/03 02:51:00;;;;;;;5.72;1.25;;;9.10;99.90;;;;;;5144836;27;20080;-82
2024/01/03 02:53:25;;;;;;;6.60;1.17;;;9.00;99.90;;;;;;5111067;28;20407;-82
2024/01/03 02:55:51;;;;;;;11.18;1.90;;;9.10;99.90;;;;;;5111096;28;20044;-81
2024/01/03 02:58:16;;;;;;;7.88;1.23;;;9.20;99.90;;;;;;5112045;28;20040;-82
2024/01/03 03:00:42;;;;;;;4.05;1.15;;;9.10;99.90;;;;;;5093221;28;20488;-82
2024/01/03 03:03:07;;;;;;;9.35;1.40;;;9.20;99.90;;;;;;5094996;28;20119;-82
2024/01/03 03:05:33;;;;;;;10.05;1.45;;;9.10;99.90;;;;;;5109998;28;20495;-82
2024/01/03 03:07:59;;;;;;;4.53;1.13;;;9.10;99.90;;;;;;5129052;28;20040;-82
2024/01/03 03:10:24;;;;;;;6.38;1.23;;;9.10;99.90;;;;;;5094028;28;20085;-82
2024/01/03 03:12:50;;;;;;;7.00;1.20;;;9.10;99.90;;;;;;5095772;28;20491;-82
2024/01/03 03:15:16;;;;;;;10.48;1.20;;;9.10;99.90;;;;;;5096994;28;20039;-82
2024/01/03 03:17:42;;;;;;;6.35;1.25;;;9.10;99.90;;;;;;5149149;27;20143;-82
2024/01/03 03:20:08;;;;;;;5.25;1.10;;;9.10;99.90;;;;;;5148474;27;20542;-82
2024/01/03 03:22:34;;;;;;;7.47;1.15;;;9.10;99.90;;;;;;5095762;28;20035;-83
2024/01/03 03:24:59;;;;;;;7.28;1.10;;;9.10;99.90;;;;;;5113055;27;20589;-82
2024/01/03 03:27:25;;;;;;;6.32;1.20;;;9.20;99.90;;;;;;5097775;28;20431;-83
2024/01/03 03:29:51;;;;;;;3.97;0.77;;;9.20;99.90;;;;;;5149952;27;20069;-82
2024/01/03 03:32:17;;;;;;;4.80;0.93;;;9.20;99.90;;;;;;5097172;28;20038;-83
2024/01/03 03:34:42;;;;;;;4.30;1.17;;;9.20;99.90;;;;;;5114707;27;20126;-81
2024/01/03 03:37:08;;;;;;;4.25;1.00;;;9.10;99.90;;;;;;5148392;27;20050;-81
2024/01/03 03:39:34;;;;;;;4.43;1.20;;;9.20;99.90;;;;;;5149573;27;20035;-81
2024/01/03 03:42:01;;;;;;;8.15;1.42;;;8.90;99.90;;;;;;5147736;27;20042;-82
2024/01/03 03:44:27;;;;;;;4.07;0.93;;;9.00;99.90;;;;;;5114427;28;20403;-81
2024/01/03 03:46:52;;;;;;;8.30;1.30;;;9.10;99.90;;;;;;5148448;27;20047;-82
2024/01/03 03:49:18;;;;;;;6.18;1.00;;;9.10;99.90;;;;;;5106574;28;20040;-82
2024/01/03 03:51:44;;;;;;;6.55;0.90;;;8.90;99.90;;;;;;5115007;27;20039;-82
2024/01/03 03:54:09;;;;;;;8.02;1.08;;;9.00;99.90;;;;;;5097029;28;20043;-83
2024/01/03 03:56:35;;;;;;;5.95;1.05;;;9.00;99.90;;;;;;5113131;27;20484;-83
2024/01/03 03:59:01;;;;;;;2.20;0.50;;;8.90;99.90;;;;;;5097601;28;20393;-83
2024/01/03 04:01:26;;;;;;;4.07;1.00;;;8.80;99.90;;;;;;5097762;28;20083;-83
2024/01/03 04:03:52;;;;;;;4.00;0.80;;;8.80;99.90;;;;;;5112334;27;20035;-81
2024/01/03 04:06:18;;;;;;;2.67;0.75;;;8.70;99.90;;;;;;5095436;28;20036;-82
2024/01/03 04:08:44;;;;;;;2.88;0.50;;;8.70;99.90;;;;;;5114643;28;20444;-82
2024/01/03 04:11:11;;;;;;;2.28;0.80;;;8.60;99.90;;;;;;5114588;28;20122;-82
2024/01/03 04:13:38;;;;;;;3.65;0.75;;;8.70;99.90;;;;;;5096124;28;20037;-83
2024/01/03 04:16:10;;;;;;;5.45;0.90;;;8.60;99.90;;;;;;5113393;28;20096;-83
2024/01/03 04:18:36;;;;;;;3.45;0.77;;;8.50;99.90;;;;;;5113817;28;20395;-83
2024/01/03 04:21:05;;;;;;;2.95;0.70;;;8.50;99.90;;;;;;5097358;28;20118;-82
2024/01/03 04:23:31;;;;;;;2.78;0.70;;;8.50;99.90;;;;;;5111534;28;20032;-82
2024/01/03 04:25:57;;;;;;;4.45;0.80;;;8.50;99.90;;;;;;5096388;28;20040;-81
2024/01/03 04:28:22;;;;;;;3.30;0.55;;;8.50;99.90;;;;;;5146239;27;20473;-82
2024/01/03 04:30:48;;;;;;;2.22;0.60;;;8.40;99.90;;;;;;5097197;28;20036;-81
2024/01/03 04:33:13;;;;;;;3.13;0.73;;;8.50;99.90;;;;;;5112640;28;20044;-81
2024/01/03 04:35:39;;;;;;;3.72;0.70;;;8.40;99.90;;;;;;5113073;27;20399;-81
2024/01/03 04:38:05;;;;;;;2.85;0.60;;;8.30;99.90;;;;;;5130439;27;20039;-81
2024/01/03 04:40:32;;;;;;;2.00;0.60;;;8.30;99.90;;;;;;5130440;27;20085;-81
2024/01/03 04:42:58;;;;;;;2.00;0.50;;;8.30;99.90;;;;;;5147687;27;20047;-81
2024/01/03 04:45:24;;;;;;;3.42;0.52;;;8.40;99.90;;;;;;5111639;28;20043;-80
2024/01/03 04:47:49;;;;;;;3.90;0.95;;;8.40;99.90;;;;;;5111891;28;20040;-81
2024/01/03 04:50:15;;;;;;;7.10;1.10;;;8.50;99.90;;;;;;5113785;28;20438;-81
2024/01/03 04:52:41;;;;;;;7.15;1.27;;;8.50;99.90;;;;;;5113597;28;20039;-81
2024/01/03 04:55:07;;;;;;;7.25;1.33;;;8.40;99.90;;;;;;5094462;28;20127;-81
2024/01/03 04:57:36;;;;;;;7.65;1.30;;;8.40;99.90;;;;;;5096665;28;20032;-81
2024/01/03 05:00:04;;;;;;;6.88;1.52;;;8.50;99.90;;;;;;5092490;28;20047;-81
2024/01/03 05:02:30;;;;;;;10.70;2.22;;;8.50;99.90;;;;;;5092665;28;20093;-81
2024/01/03 05:04:56;;;;;;;9.38;1.63;;;8.50;99.90;;;;;;5073883;28;20047;-80
2024/01/03 05:07:21;;;;;;;6.68;1.10;;;8.50;99.90;;;;;;5093086;28;20032;-81
2024/01/03 05:09:47;;;;;;;12.05;2.28;;;8.50;99.90;;;;;;5075181;28;20123;-80
2024/01/03 05:12:13;;;;;;;10.50;2.03;;;8.60;99.90;;;;;;5092993;28;20036;-80
2024/01/03 05:14:38;;;;;;;14.95;3.03;;;8.70;99.90;;;;;;5074612;28;20444;-80
2024/01/03 05:17:04;;;;;;;17.45;2.97;;;8.80;99.90;;;;;;5075428;28;20484;-80
2024/01/03 05:19:29;;;;;;;15.90;2.63;;;8.80;99.90;;;;;;5074621;28;20043;-80
2024/01/03 05:21:55;;;;;;;19.00;2.22;;;9.00;99.90;;;;;;5092696;28;20039;-80
2024/01/03 05:24:21;;;;;;;9.82;2.38;;;8.90;99.90;;;;;;5091660;28;20510;-80
2024/01/03 05:26:46;;;;;;;16.15;2.65;;;9.10;99.90;;;;;;5074642;28;20035;-80
2024/01/03 05:29:12;;;;;;;19.75;3.42;;;9.10;99.90;;;;;;5091326;28;20046;-81
2024/01/03 05:31:38;;;;;;;15.30;2.92;;;9.10;99.90;;;;;;5075031;28;20042;-81
2024/01/03 05:34:04;;;;;;;16.35;2.97;;;9.10;99.90;;;;;;5075779;28;20035;-80
2024/01/03 05:36:30;;;;;;;19.10;2.78;;;9.10;99.90;;;;;;5072804;28;20036;-81
2024/01/03 05:38:56;;;;;;;13.85;2.47;;;9.20;99.90;;;;;;5092458;28;20032;-81
2024/01/03 05:41:22;;;;;;;11.43;2.20;;;9.20;99.90;;;;;;5091588;28;20036;-81
2024/01/03 05:43:47;;;;;;;12.48;1.98;;;9.30;99.90;;;;;;5075565;28;20036;-81
2024/01/03 05:46:13;;;;;;;9.95;1.80;;;9.30;99.90;;;;;;5090292;28;20392;-80
2024/01/03 05:48:38;;;;;;;10.75;3.00;;;9.40;99.90;;;;;;5090254;28;20044;-81
2024/01/03 05:51:06;;;;;;;8.77;1.55;;;9.40;99.90;;;;;;5074279;28;20040;-82
2024/01/03 05:53:31;;;;;;;14.65;2.53;;;9.40;99.90;;;;;;5075609;28;20548;-81
2024/01/03 05:55:57;;;;;;;12.55;1.95;;;9.30;99.90;;;;;;5091001;28;20120;-80
2024/01/03 05:58:23;;;;;;;11.32;2.10;;;9.20;99.90;;;;;;5081879;28;20047;-80
2024/01/03 06:00:49;;;;;;;20.40;2.72;;;9.20;99.90;;;;;;5110781;28;20047;-81
2024/01/03 06:03:14;;;;;;;12.07;1.90;;;9.30;99.90;;;;;;5112753;28;20043;-80
2024/01/03 06:05:40;;;;;;;16.35;2.20;;;9.20;99.90;;;;;;5094502;28;20512;-80
2024/01/03 06:08:06;;;;;;;12.45;2.25;;;9.30;99.90;;;;;;5145657;27;20036;-81
2024/01/03 06:10:32;;;;;;;10.18;1.92;;;9.20;99.90;;;;;;5110003;28;20126;-80
2024/01/03 06:12:57;;;;;;;16.27;2.53;;;9.30;99.90;;;;;;5112334;28;20046;-82
2024/01/03 06:15:23;;;;;;;16.63;2.28;;;9.30;99.90;;;;;;5111111;28;20035;-81
2024/01/03 06:17:48;;;;;;;7.18;1.80;;;9.30;99.90;;;;;;5093530;28;20031;-81
2024/01/03 06:20:14;;;;;;;13.68;2.72;;;9.40;99.90;;;;;;5094613;28;20122;-81
2024/01/03 06:22:40;;;;;;;11.35;2.63;;;9.30;99.90;;;;;;5094865;28;20047;-81
2024/01/03 06:25:06;;;;;;;9.88;2.03;;;9.60;99.90;;;;;;5094244;28;20042;-81
2024/01/03 06:27:32;;;;;;;11.75;2.08;;;9.50;99.90;;;;;;5109981;28;20119;-82
2024/01/03 06:29:58;;;;;;;12.75;2.00;;;9.40;99.90;;;;;;5095334;28;20046;-81
2024/01/03 06:32:23;;;;;;;14.35;2.75;;;9.50;99.90;;;;;;5107337;28;20047;-81
2024/01/03 06:34:49;;;;;;;11.88;2.10;;;9.50;99.90;;;;;;5091702;28;20523;-81
2024/01/03 06:37:15;;;;;;;12.50;2.90;;;9.50;99.90;;;;;;5078818;28;20094;-80
2024/01/03 06:39:40;;;;;;;13.07;2.60;;;9.50;99.90;;;;;;5095481;28;20372;-81
2024/01/03 06:42:06;;;;;;;13.98;2.00;;;9.50;99.90;;;;;;5111193;28;20514;-82
2024/01/03 06:44:32;;;;;;;8.05;1.67;;;9.40;99.90;;;;;;5112166;28;20032;-81
2024/01/03 06:46:58;;;;;;;7.32;1.70;;;9.50;99.90;;;;;;5096273;27;20050;-82
2024/01/03 06:49:23;;;;;;;9.40;1.63;;;9.60;99.90;;;;;;5130683;27;20032;-82
2024/01/03 06:51:49;;;;;;;14.00;2.28;;;9.60;99.90;;;;;;5114482;28;20445;-82
2024/01/03 06:54:15;;;;;;;9.52;1.80;;;9.50;99.90;;;;;;5115734;28;20491;-82
2024/01/03 06:56:40;;;;;;;7.55;1.40;;;9.50;99.90;;;;;;5098918;28;20047;-81
2024/01/03 06:59:06;;;;;;;11.02;1.92;;;9.40;99.90;;;;;;5113466;28;20506;-82
2024/01/03 07:01:32;;;;;;;8.40;1.52;;;9.30;99.90;;;;;;5115246;28;20407;-82
2024/01/03 07:03:59;;;;;;;9.20;1.50;;;9.40;99.90;;;;;;5113771;28;20443;-82
2024/01/03 07:06:25;;;;;;;9.27;1.23;;;9.40;99.90;;;;;;5098964;28;20173;-81
2024/01/03 07:08:53;;;;;;;6.55;1.17;;;9.40;99.90;;;;;;5097179;28;20081;-81
2024/01/03 07:11:19;;;;;;;9.05;1.20;;;9.30;99.90;;;;;;5098116;28;20043;-82
2024/01/03 07:13:44;;;;;;;10.50;1.55;;;9.30;99.90;;;;;;5132032;27;20061;-82
2024/01/03 07:16:11;;;;;;;8.95;1.55;;;9.40;99.90;;;;;;5098711;28;20105;-81
2024/01/03 07:18:36;;;;;;;9.32;1.38;;;9.40;99.90;;;;;;5114483;28;20092;-82
2024/01/03 07:21:02;;;;;;;6.95;1.45;;;9.40;99.90;;;;;;5096558;28;20031;-82
2024/01/03 07:23:28;;;;;;;6.97;1.10;;;9.50;99.90;;;;;;5114442;28;20039;-81
2024/01/03 07:25:53;;;;;;;12.30;1.67;;;9.60;99.90;;;;;;5115450;28;20073;-81
2024/01/03 07:28:19;;;;;;;11.63;1.85;;;9.70;99.90;;;;;;5114844;27;20040;-81
2024/01/03 07:30:45;;;;;;;9.60;1.60;;;9.70;99.90;;;;;;5147578;27;20445;-82
2024/01/03 07:33:10;;;;;;;16.95;2.58;;;9.60;99.90;;;;;;5114288;28;20046;-81
2024/01/03 07:35:36;;;;;;;13.02;2.28;;;9.60;99.90;;;;;;5115291;28;20043;-82
2024/01/03 07:38:02;;;;;;;14.40;2.17;;;9.60;99.90;;;;;;5115104;28;20566;-82
2024/01/03 07:40:27;;;;;;;9.38;2.03;;;9.60;99.90;;;;;;5096128;28;20118;-82
2024/01/03 07:42:53;;;;;;;13.63;2.38;;;9.50;99.90;;;;;;5098415;28;20458;-83
2024/01/03 07:45:19;;;;;;;11.23;1.70;;;9.50;99.90;;;;;;5114021;27;20050;-82
2024/01/03 07:47:44;;;;;;;12.40;2.20;;;9.50;99.90;;;;;;5114879;28;20035;-82
2024/01/03 07:50:11;;;;;;;12.05;1.73;;;9.40;99.90;;;;;;5113099;27;20047;-82
2024/01/03 07:52:37;;;;;;;14.60;2.13;;;9.50;99.90;;;;;;5095677;27;20039;-82
2024/01/03 07:55:03;;;;;;;15.30;1.95;;;9.50;99.90;;;;;;5092928;28;20036;-82
2024/01/03 07:57:29;;;;;;;9.88;1.48;;;9.50;99.90;;;;;;5148894;27;20043;-82
2024/01/03 07:59:54;;;;;;;17.83;3.40;;;9.60;99.90;;;;;;5129562;27;20047;-82
2024/01/03 08:02:20;;;;;;;17.33;2.22;;;9.50;99.90;;;;;;5148288;27;20094;-82
2024/01/03 08:04:46;;;;;;;9.50;2.08;;;9.50;99.90;;;;;;5115234;27;20031;-82
2024/01/03 08:07:11;;;;;;;10.63;2.10;;;9.50;99.90;;;;;;5096123;27;20492;-82
2024/01/03 08:09:37;;;;;;;7.70;1.38;;;9.40;99.90;;;;;;5079835;28;20689;-81
2024/01/03 08:12:11;;;;;;;14.32;2.75;;;9.50;99.90;;;;;;5124652;27;20138;-82
2024/01/03 08:14:36;;;;;;;12.52;2.47;;;9.50;99.90;;;;;;5124974;27;20048;-81
2024/01/03 08:17:02;;;;;;;9.43;2.17;;;9.40;99.90;;;;;;5120489;27;20040;-84
2024/01/03 08:19:28;;;;;;;12.23;2.30;;;9.40;99.90;;;;;;5125659;27;20027;-87
2024/01/03 08:21:54;;;;;;;7.80;1.50;;;9.40;99.90;;;;;;5144557;27;20034;-82
2024/01/03 08:24:20;;;;;;;13.52;2.25;;;9.40;99.90;;;;;;5108526;28;20493;-82
2024/01/03 08:26:47;;;;;;;9.90;1.50;;;9.40;99.90;;;;;;5096151;27;20123;-82
2024/01/03 08:29:16;;;;;;;8.60;1.65;;;9.40;99.90;;;;;;5116501;27;20079;-81
2024/01/03 08:31:41;;;;;;;8.82;1.80;;;9.40;99.90;;;;;;5105509;27;20043;-80
2024/01/03 08:34:07;;;;;;;11.82;2.05;;;9.50;99.90;;;;;;5115098;27;20035;-80
2024/01/03 08:36:40;;;;;;;10.40;1.58;;;9.40;99.90;;;;;;5102355;27;20055;-81
2024/01/03 08:39:07;;;;;;;10.13;1.73;;;9.30;99.90;;;;;;5082577;27;20127;-80
2024/01/03 08:41:33;;;;;;;5.18;1.15;;;9.30;99.90;;;;;;5067182;27;20495;-81
2024/01/03 08:43:59;;;;;;;8.55;1.25;;;9.40;99.90;;;;;;5105285;27;20043;-80
2024/01/03 08:46:30;;;;;;;12.55;2.13;;;9.40;99.90;;;;;;5081880;27;20048;-81
2024/01/03 08:48:56;;;;;;;11.50;1.85;;;9.40;99.90;;;;;;5113936;27;20400;-80
2024/01/03 08:51:23;;;;;;;5.88;1.50;;;9.50;99.90;;;;;;5076444;28;20079;-80
2024/01/03 08:53:49;;;;;;;8.98;1.70;;;9.50;99.90;;;;;;5066540;28;20040;-81
2024/01/03 08:56:18;;;;;;;13.43;1.70;;;9.60;99.90;;;;;;5100704;27;20051;-81
2024/01/03 08:58:46;;;;;;;7.20;1.40;;;9.60;99.90;;;;;;5097841;27;20056;-81
2024/01/03 09:01:16;;;;;;;11.35;1.70;;;9.50;99.90;;;;;;5072582;28;20039;-81
2024/01/03 09:03:42;;;;;;;7.35;1.10;;;9.60;99.90;;;;;;5111907;27;20040;-81
2024/01/03 09:06:08;;;;;;;7.53;1.17;;;9.50;99.90;;;;;;5122114;27;20125;-80
2024/01/03 09:08:33;;;;;;;7.60;1.35;;;9.60;99.90;;;;;;5093981;27;20173;-81
2024/01/03 09:10:59;;;;;;;6.57;2.13;;;9.60;99.90;;;;;;5109931;27;20036;-81
2024/01/03 09:13:25;;;;;;;10.38;1.73;;;9.50;99.90;;;;;;5119608;27;20065;-81
2024/01/03 09:15:52;;;;;;;10.55;1.63;;;9.40;99.90;;;;;;5087530;27;20085;-80
2024/01/03 09:18:17;;;;;;;6.82;1.38;;;9.40;99.90;;;;;;5114839;27;20036;-81
2024/01/03 09:20:43;;;;;;;9.80;2.53;;;9.40;99.90;;;;;;5070408;28;20107;-81
2024/01/03 09:23:09;;;;;;;8.50;1.40;;;9.30;99.90;;;;;;5071218;28;20043;-80
2024/01/03 09:25:35;;;;;;;5.95;1.40;;;9.40;99.90;;;;;;5087127;27;20047;-81
2024/01/03 09:28:00;;;;;;;7.72;1.85;;;9.20;99.90;;;;;;5087953;27;20404;-81
2024/01/03 09:30:26;;;;;;;12.45;1.63;;;9.10;99.90;;;;;;5108485;27;20655;-81
2024/01/03 09:32:53;;;;;;;11.02;2.00;;;9.10;99.90;;;;;;5078919;27;20130;-81
2024/01/03 09:35:19;;;;;;;6.15;1.27;;;9.10;99.90;;;;;;5063872;28;20165;-81
2024/01/03 09:37:45;;;;;;;6.80;1.48;;;9.10;99.90;;;;;;5115149;27;20062;-81
2024/01/03 09:40:12;;;;;;;10.65;1.88;;;9.20;99.90;;;;;;5148496;27;20039;-81
2024/01/03 09:42:38;;;;;;;9.13;1.52;;;9.30;99.90;;;;;;5091848;28;20114;-81
2024/01/03 09:45:05;;;;;;;7.88;1.45;;;9.30;99.90;;;;;;5095926;28;20063;-80
2024/01/03 09:47:31;;;;;;;11.05;1.88;;;9.30;99.90;;;;;;5108725;28;20445;-81
2024/01/03 09:49:56;;;;;;;12.27;2.55;;;9.30;99.90;;;;;;5094189;28;20043;-80
2024/01/03 09:52:22;;;;;;;8.27;1.48;;;9.30;99.90;;;;;;5101108;27;20040;-81
2024/01/03 09:54:49;;;;;;;7.50;1.50;;;9.30;99.90;;;;;;5095436;28;20393;-80
2024/01/03 09:57:18;;;;;;;11.48;1.50;;;9.60;99.90;;;;;;5093080;28;20106;-81
2024/01/03 09:59:44;;;;;;;9.57;1.55;;;9.50;99.90;;;;;;5143231;27;20392;-80
2024/01/03 10:02:11;;;;;;;7.85;1.33;;;9.60;99.90;;;;;;5145134;27;20042;-80
2024/01/03 10:04:37;;;;;;;7.20;1.20;;;9.60;99.90;;;;;;5087290;28;20024;-80
2024/01/03 10:07:03;;;;;;;7.88;1.52;;;9.50;99.90;;;;;;5125965;27;20101;-80
2024/01/03 10:09:44;;;;;;;8.27;1.13;;;9.60;99.90;;;;;;5125441;27;20135;-81
2024/01/03 10:12:19;;;;;;;4.47;0.93;;;9.50;99.90;;;;;;5084415;28;20042;-80
2024/01/03 10:14:46;;;;;;;7.35;1.20;;;9.60;99.90;;;;;;5094121;28;20560;-81
2024/01/03 10:17:11;;;;;;;8.93;1.50;;;9.60;99.90;;;;;;5094704;28;20040;-81
2024/01/03 10:19:37;;;;;;;9.57;1.50;;;9.60;99.90;;;;;;5111750;28;20109;-80
2024/01/03 10:22:04;;;;;;;9.40;1.60;;;9.60;99.90;;;;;;5095896;27;20126;-79
2024/01/03 10:24:31;;;;;;;7.00;1.20;;;9.70;99.90;;;;;;5115210;27;20031;-81
2024/01/03 10:27:09;;;;;;;8.63;1.50;;;9.60;99.90;;;;;;5095619;28;20035;-81
2024/01/03 10:29:35;;;;;;;7.30;1.33;;;9.60;99.90;;;;;;5127448;27;20047;-80
2024/01/03 10:32:03;;;;;;;6.43;1.40;;;9.60;99.90;;;;;;5098124;28;20035;-80
2024/01/03 10:34:29;;;;;;;9.50;1.92;;;9.70;99.90;;;;;;5096969;27;20047;-80
2024/01/03 10:36:56;;;;;;;11.52;1.45;;;9.80;99.90;;;;;;5114771;27;20043;-80
2024/01/03 10:39:22;;;;;;;10.15;1.40;;;9.80;99.90;;;;;;5095652;27;20031;-80
2024/01/03 10:41:49;;;;;;;9.10;1.50;;;9.90;99.90;;;;;;5116742;27;20392;-80
2024/01/03 10:44:16;;;;;;;6.57;1.15;;;9.80;99.90;;;;;;5119203;27;20036;-80
2024/01/03 10:46:43;;;;;;;10.80;1.65;;;9.90;99.90;;;;;;5134542;27;20483;-81
2024/01/03 10:49:08;;;;;;;7.43;1.25;;;10.00;99.90;;;;;;5116617;27;20138;-80
2024/01/03 10:51:40;;;;;;;7.25;1.40;;;10.00;99.90;;;;;;5118310;27;20110;-80
2024/01/03 10:54:09;;;;;;;5.90;1.20;;;9.90;99.90;;;;;;5129395;27;20043;-79
2024/01/03 10:56:35;;;;;;;5.55;1.08;;;9.90;99.90;;;;;;5138802;27;20048;-80
2024/01/03 10:59:03;;;;;;;12.00;1.55;;;9.90;99.90;;;;;;5102094;28;20040;-80
2024/01/03 11:01:47;;;;;;;9.57;2.28;;;9.90;99.90;;;;;;5108675;27;20495;-80
2024/01/03 11:04:16;;;;;;;8.77;1.48;;;9.90;99.90;;;;;;5118858;28;20039;-80
2024/01/03 11:06:53;;;;;;;11.05;1.90;;;10.00;99.90;;;;;;5110154;27;20054;-80
2024/01/03 11:09:19;;;;;;;10.27;1.60;;;10.00;99.90;;;;;;5115084;27;20071;-79
2024/01/03 11:11:46;;;;;;;9.25;1.65;;;10.00;99.90;;;;;;5111246;27;20331;-79
2024/01/03 11:14:18;;;;;;;11.38;1.80;;;10.10;99.90;;;;;;5109309;27;20560;-80
2024/01/03 11:16:44;;;;;;;7.55;1.60;;;10.10;99.90;;;;;;5113884;28;20051;-79
2024/01/03 11:19:10;;;;;;;11.52;2.40;;;10.10;99.90;;;;;;5134021;27;20030;-79
2024/01/03 11:21:37;;;;;;;18.25;2.15;;;10.10;99.90;;;;;;5128895;27;20443;-80
2024/01/03 11:24:09;;;;;;;8.50;1.60;;;10.20;99.90;;;;;;5118695;27;20035;-80
2024/01/03 11:27:00;;;;;;;20.27;2.65;;;10.20;99.90;;;;;;5101416;28;20039;-80
2024/01/03 11:29:35;;;;;;;11.45;2.28;;;10.10;99.90;;;;;;5150273;27;20134;-79
2024/01/03 11:32:23;;;;;;;11.07;2.70;;;10.10;99.90;;;;;;5115301;27;20031;-80
2024/01/03 11:34:49;;;;;;;12.10;1.98;;;10.20;99.90;;;;;;5138673;27;20044;-80
2024/01/03 11:37:18;;;;;;;14.10;2.70;;;10.10;99.90;;;;;;5131965;27;20040;-80
2024/01/03 11:39:46;;;;;;;12.98;2.15;;;10.10;99.90;;;;;;5111595;28;20042;-79
2024/01/03 11:42:38;;;;;;;12.82;1.60;;;10.10;99.90;;;;;;5129266;27;20032;-79
2024/01/03 11:45:05;;;;;;;15.63;2.35;;;10.20;99.90;;;;;;5130832;27;20429;-80
2024/01/03 11:47:49;;;;;;;16.98;3.10;;;10.10;99.90;;;;;;5103425;27;20051;-79
2024/01/03 11:50:16;;;;;;;11.98;2.38;;;10.10;99.90;;;;;;5124210;27;20039;-79
2024/01/03 11:52:47;;;;;;;14.43;1.67;;;10.00;99.90;;;;;;5099395;28;20043;-79
2024/01/03 11:55:16;;;;;;;13.88;2.13;;;10.00;99.90;;;;;;5093259;28;20044;-79
2024/01/03 11:57:48;;;;;;;15.60;2.53;;;10.00;99.90;;;;;;5111868;28;20392;-79
2024/01/03 12:00:15;;;;;;;18.30;2.38;;;9.90;99.90;;;;;;5111524;28;20039;-80
2024/01/03 12:02:57;;;;;;;13.38;2.17;;;10.00;99.90;;;;;;5097142;28;20032;-79
2024/01/03 12:05:25;;;;;;;10.73;2.03;;;10.00;99.90;;;;;;5097262;28;20074;-80
2024/01/03 12:07:52;;;;;;;12.80;1.83;;;10.00;99.90;;;;;;5105040;27;20043;-80
2024/01/03 12:10:18;;;;;;;13.82;3.78;;;10.20;99.90;;;;;;5092613;28;20024;-80
2024/01/03 12:12:45;;;;;;;13.75;2.35;;;10.10;99.90;;;;;;5111509;28;20043;-80
2024/01/03 12:15:26;;;;;;;10.05;1.80;;;10.10;99.90;;;;;;5113455;28;20032;-80
2024/01/03 12:17:52;;;;;;;11.43;2.17;;;10.10;99.90;;;;;;5114412;28;20466;-79
2024/01/03 12:20:20;;;;;;;15.63;2.70;;;10.10;99.90;;;;;;5127378;27;20063;-79
2024/01/03 12:22:46;;;;;;;17.77;2.70;;;10.10;99.90;;;;;;5110419;28;20036;-79
2024/01/03 12:25:17;;;;;;;15.35;2.42;;;10.10;99.90;;;;;;5088951;28;20392;-79
2024/01/03 12:27:43;;;;;;;16.17;2.90;;;10.10;99.90;;;;;;5130656;27;20110;-80
2024/01/03 12:30:14;;;;;;;14.85;2.65;;;10.00;99.90;;;;;;5143025;27;20617;-79
2024/01/03 12:32:40;;;;;;;15.23;2.70;;;10.00;99.90;;;;;;5120003;27;20035;-79
2024/01/03 12:35:06;;;;;;;12.23;2.55;;;9.90;99.90;;;;;;5103696;28;20035;-79
2024/01/03 12:37:32;;;;;;;15.85;2.30;;;9.90;99.90;;;;;;5130641;27;20050;-80
2024/01/03 12:39:58;;;;;;;13.98;2.25;;;9.90;99.90;;;;;;5143992;27;20036;-80
2024/01/03 12:42:23;;;;;;;13.00;1.75;;;10.00;99.90;;;;;;5105416;28;20054;-80
2024/01/03 12:44:50;;;;;;;10.77;1.58;;;10.00;99.90;;;;;;5146502;27;20407;-79
2024/01/03 12:47:16;;;;;;;12.55;2.15;;;10.00;99.90;;;;;;5103044;27;20048;-79
2024/01/03 12:49:41;;;;;;;10.73;1.92;;;10.10;99.90;;;;;;5109503;27;20032;-79
2024/01/03 12:52:08;;;;;;;16.25;2.55;;;10.00;99.90;;;;;;5094186;28;20031;-79